Time;durP1;ratioP1;P1;durP2;ratioP2;P2;SDS_P1;SDS_P2;PMS_P1;PMS_P2;Temp;Humidity;BMP_temperature;BMP_pressure;BME280_temperature;BME280_humidity;BME280_pressure;Samples;Min_cycle;Max_cycle;Signal;HPM_P1;HPM_P2
2022/04/29 00:00:16;;;;;;;8.17;6.20;;;;;;;;;;4964120;28;20229;-52
2022/04/29 00:02:42;;;;;;;10.37;5.53;;;;;;;;;;4971616;28;20194;-52
2022/04/29 00:05:08;;;;;;;7.70;5.87;;;;;;;;;;4967856;28;20183;-53
2022/04/29 00:07:35;;;;;;;8.67;5.90;;;;;;;;;;4966798;28;20248;-53
2022/04/29 00:10:01;;;;;;;9.93;5.80;;;;;;;;;;4968508;28;20246;-52
2022/04/29 00:12:27;;;;;;;9.17;5.83;;;;;;;;;;4961778;28;20205;-52
2022/04/29 00:14:55;;;;;;;9.07;5.87;;;;;;;;;;4969670;28;20215;-53
2022/04/29 00:17:21;;;;;;;8.70;6.27;;;;;;;;;;4967932;28;20182;-52
2022/04/29 00:19:47;;;;;;;8.53;6.17;;;;;;;;;;4968484;28;20190;-52
2022/04/29 00:22:13;;;;;;;7.03;5.83;;;;;;;;;;4962888;28;20209;-52
2022/04/29 00:24:39;;;;;;;10.80;6.50;;;;;;;;;;4967099;28;20198;-53
2022/04/29 00:27:05;;;;;;;8.90;6.47;;;;;;;;;;4969584;28;20198;-53
2022/04/29 00:29:31;;;;;;;9.13;6.30;;;;;;;;;;4966654;28;20190;-52
2022/04/29 00:31:57;;;;;;;10.57;7.07;;;;;;;;;;4963527;28;22096;-52
2022/04/29 00:34:23;;;;;;;10.23;6.57;;;;;;;;;;4969803;28;20589;-52
2022/04/29 00:36:49;;;;;;;12.33;7.70;;;;;;;;;;4966353;28;20735;-53
2022/04/29 00:39:15;;;;;;;10.83;6.33;;;;;;;;;;4965030;28;20562;-52
2022/04/29 00:41:44;;;;;;;7.77;6.50;;;;;;;;;;4967710;28;20606;-52
2022/04/29 00:44:10;;;;;;;11.07;6.83;;;;;;;;;;4966840;28;20647;-52
2022/04/29 00:46:38;;;;;;;10.17;7.23;;;;;;;;;;4961042;28;20198;-53
2022/04/29 00:49:04;;;;;;;12.20;6.90;;;;;;;;;;4971308;28;20198;-53
2022/04/29 00:51:30;;;;;;;9.00;6.43;;;;;;;;;;4967096;28;20191;-52
2022/04/29 00:53:57;;;;;;;8.57;6.87;;;;;;;;;;4964547;28;20699;-53
2022/04/29 00:56:23;;;;;;;11.57;6.50;;;;;;;;;;4966732;28;20602;-52
2022/04/29 00:59:06;;;;;;;10.30;7.00;;;;;;;;;;4972496;28;22411;-52
2022/04/29 01:01:32;;;;;;;10.40;6.83;;;;;;;;;;4965131;28;20222;-52
2022/04/29 01:03:58;;;;;;;11.57;6.80;;;;;;;;;;4968208;28;20305;-52
2022/04/29 01:06:25;;;;;;;9.80;6.43;;;;;;;;;;4971401;28;20221;-52
2022/04/29 01:08:52;;;;;;;9.77;7.30;;;;;;;;;;4967488;28;20244;-52
2022/04/29 01:11:19;;;;;;;9.37;7.37;;;;;;;;;;4967279;28;20269;-52
2022/04/29 01:13:45;;;;;;;13.50;7.47;;;;;;;;;;4968339;28;20848;-52
2022/04/29 01:16:11;;;;;;;8.50;6.37;;;;;;;;;;4967047;28;20337;-52
2022/04/29 01:18:37;;;;;;;10.23;6.57;;;;;;;;;;4963465;28;20195;-52
2022/04/29 01:21:03;;;;;;;9.43;6.93;;;;;;;;;;4964753;28;20679;-52
2022/04/29 01:23:29;;;;;;;9.10;7.00;;;;;;;;;;4966858;28;20602;-52
2022/04/29 01:25:55;;;;;;;9.23;6.90;;;;;;;;;;4966499;28;20647;-53
2022/04/29 01:28:23;;;;;;;7.47;6.40;;;;;;;;;;4961171;28;20233;-53
2022/04/29 01:30:51;;;;;;;10.60;6.90;;;;;;;;;;4962541;28;20170;-52
2022/04/29 01:33:17;;;;;;;9.90;6.37;;;;;;;;;;4966538;28;20191;-52
2022/04/29 01:35:43;;;;;;;7.30;6.07;;;;;;;;;;4957776;28;20214;-52
2022/04/29 01:38:09;;;;;;;9.67;6.77;;;;;;;;;;4968303;28;20190;-52
2022/04/29 01:40:35;;;;;;;7.70;6.43;;;;;;;;;;4964732;28;20194;-53
2022/04/29 01:43:02;;;;;;;14.00;7.37;;;;;;;;;;4969467;28;20280;-52
2022/04/29 01:45:28;;;;;;;9.83;6.90;;;;;;;;;;4962738;28;20195;-51
2022/04/29 01:47:54;;;;;;;8.10;6.90;;;;;;;;;;4960140;28;20187;-53
2022/04/29 01:50:20;;;;;;;9.30;6.70;;;;;;;;;;4971823;28;20213;-52
2022/04/29 01:52:46;;;;;;;10.97;6.70;;;;;;;;;;4962553;28;20194;-52
2022/04/29 01:55:12;;;;;;;10.30;7.23;;;;;;;;;;4963834;28;20210;-53
2022/04/29 01:57:38;;;;;;;10.63;7.40;;;;;;;;;;4962136;28;21112;-52
2022/04/29 02:00:04;;;;;;;9.30;7.17;;;;;;;;;;4963579;28;20274;-52
2022/04/29 02:02:30;;;;;;;9.33;6.77;;;;;;;;;;4968527;28;20241;-53
2022/04/29 02:04:56;;;;;;;10.73;7.10;;;;;;;;;;4960012;28;21960;-53
2022/04/29 02:07:22;;;;;;;10.97;7.27;;;;;;;;;;4968552;28;20240;-52
2022/04/29 02:09:48;;;;;;;10.67;6.80;;;;;;;;;;4961223;28;20282;-52
2022/04/29 02:12:15;;;;;;;10.53;6.77;;;;;;;;;;4965145;28;20305;-52
2022/04/29 02:14:42;;;;;;;12.40;7.00;;;;;;;;;;4963686;28;20214;-52
2022/04/29 02:17:08;;;;;;;11.83;7.07;;;;;;;;;;4965888;28;20199;-53
2022/04/29 02:19:34;;;;;;;13.17;6.77;;;;;;;;;;4966638;28;20682;-52
2022/04/29 02:22:01;;;;;;;9.67;7.43;;;;;;;;;;4969145;28;20187;-53
2022/04/29 02:24:27;;;;;;;9.27;6.77;;;;;;;;;;4964393;28;20202;-53
2022/04/29 02:26:53;;;;;;;11.90;7.40;;;;;;;;;;4968119;28;20199;-52
2022/04/29 02:29:19;;;;;;;13.03;8.00;;;;;;;;;;4962186;28;20203;-52
2022/04/29 02:31:45;;;;;;;10.20;7.40;;;;;;;;;;4954442;28;20240;-52
2022/04/29 02:34:11;;;;;;;8.60;6.90;;;;;;;;;;4961449;28;20218;-52
2022/04/29 02:36:37;;;;;;;10.43;7.30;;;;;;;;;;4957924;28;20671;-53
2022/04/29 02:39:04;;;;;;;10.10;7.97;;;;;;;;;;4960765;28;21134;-53
2022/04/29 02:41:30;;;;;;;9.93;7.17;;;;;;;;;;4959343;28;20183;-52
2022/04/29 02:43:56;;;;;;;10.27;7.80;;;;;;;;;;4965742;28;20599;-53
2022/04/29 02:46:22;;;;;;;9.77;6.80;;;;;;;;;;4956177;28;20201;-53
2022/04/29 02:48:48;;;;;;;8.10;7.00;;;;;;;;;;4965387;28;20189;-53
2022/04/29 02:51:15;;;;;;;13.10;7.53;;;;;;;;;;4963793;28;20667;-52
2022/04/29 02:53:42;;;;;;;12.67;7.80;;;;;;;;;;4955208;28;20645;-52
2022/04/29 02:56:08;;;;;;;8.23;7.10;;;;;;;;;;4958199;28;20640;-53
2022/04/29 02:58:34;;;;;;;10.73;7.37;;;;;;;;;;4958702;28;20195;-53
2022/04/29 03:00:59;;;;;;;11.80;7.30;;;;;;;;;;4964118;28;20194;-52
2022/04/29 03:03:25;;;;;;;12.37;6.90;;;;;;;;;;4965699;28;20824;-52
2022/04/29 03:05:51;;;;;;;11.53;8.00;;;;;;;;;;4965798;28;20544;-52
2022/04/29 03:08:17;;;;;;;10.13;7.73;;;;;;;;;;4966102;28;21272;-52
2022/04/29 03:10:43;;;;;;;11.03;7.73;;;;;;;;;;4966390;28;20664;-52
2022/04/29 03:13:09;;;;;;;9.40;7.80;;;;;;;;;;4968636;28;20190;-53
2022/04/29 03:15:36;;;;;;;10.40;7.83;;;;;;;;;;4966570;28;20214;-53
2022/04/29 03:20:46;;;;;;;10.00;7.73;;;;;;;;;;4963659;28;20242;-54
2022/04/29 03:23:12;;;;;;;10.20;8.17;;;;;;;;;;4958785;28;20187;-52
2022/04/29 03:25:40;;;;;;;12.30;8.03;;;;;;;;;;4969543;28;20191;-53
2022/04/29 03:28:06;;;;;;;12.80;8.60;;;;;;;;;;4974791;28;20292;-54
2022/04/29 03:30:32;;;;;;;9.53;8.03;;;;;;;;;;4966227;28;20197;-53
2022/04/29 03:33:00;;;;;;;9.03;7.57;;;;;;;;;;4969262;28;20202;-53
2022/04/29 03:35:26;;;;;;;12.80;8.13;;;;;;;;;;4971567;28;20737;-53
2022/04/29 03:37:53;;;;;;;14.03;8.17;;;;;;;;;;4967901;28;20284;-54
2022/04/29 03:40:22;;;;;;;12.00;8.60;;;;;;;;;;4972972;28;20686;-54
2022/04/29 03:42:51;;;;;;;12.23;8.70;;;;;;;;;;4969322;28;20189;-54
2022/04/29 03:45:17;;;;;;;13.83;8.93;;;;;;;;;;4968408;28;20802;-53
2022/04/29 03:47:43;;;;;;;10.57;8.50;;;;;;;;;;4961941;28;20599;-54
2022/04/29 03:50:10;;;;;;;12.47;9.33;;;;;;;;;;4968279;28;20194;-53
2022/04/29 03:52:44;;;;;;;15.83;9.27;;;;;;;;;;4959405;28;20658;-53
2022/04/29 03:55:10;;;;;;;13.50;9.13;;;;;;;;;;4966567;28;20214;-54
2022/04/29 03:57:36;;;;;;;12.60;8.53;;;;;;;;;;4964226;28;20191;-52
2022/04/29 04:00:03;;;;;;;13.90;8.27;;;;;;;;;;4969999;28;20668;-53
2022/04/29 04:02:30;;;;;;;12.30;8.83;;;;;;;;;;4965544;28;20222;-53
2022/04/29 04:04:56;;;;;;;12.43;9.20;;;;;;;;;;4960848;28;20248;-52
2022/04/29 04:07:22;;;;;;;13.40;9.00;;;;;;;;;;4963654;28;20372;-54
2022/04/29 04:09:48;;;;;;;10.47;9.20;;;;;;;;;;4969792;28;20198;-53
2022/04/29 04:12:14;;;;;;;12.07;8.87;;;;;;;;;;4968796;28;20194;-53
2022/04/29 04:14:39;;;;;;;14.03;9.40;;;;;;;;;;4969728;28;20581;-53
2022/04/29 04:17:07;;;;;;;11.50;10.00;;;;;;;;;;4959862;28;20266;-53
2022/04/29 04:19:34;;;;;;;11.57;9.33;;;;;;;;;;4951845;28;20198;-53
2022/04/29 04:22:00;;;;;;;13.93;9.87;;;;;;;;;;4949625;28;20191;-54
2022/04/29 04:24:25;;;;;;;12.57;9.63;;;;;;;;;;4952493;28;21091;-53
2022/04/29 04:26:51;;;;;;;14.13;9.20;;;;;;;;;;4963175;28;20191;-53
2022/04/29 04:29:17;;;;;;;10.50;9.17;;;;;;;;;;4964170;28;20668;-53
2022/04/29 04:31:43;;;;;;;13.40;9.33;;;;;;;;;;4963084;28;20190;-53
2022/04/29 04:36:54;;;;;;;12.73;9.53;;;;;;;;;;4955309;28;20193;-53
2022/04/29 04:39:21;;;;;;;12.03;9.27;;;;;;;;;;4958311;28;20194;-54
2022/04/29 04:41:48;;;;;;;10.70;9.13;;;;;;;;;;4964541;28;20667;-54
2022/04/29 04:44:13;;;;;;;15.43;9.60;;;;;;;;;;4965277;28;20707;-54
2022/04/29 04:46:40;;;;;;;16.83;10.73;;;;;;;;;;4965289;28;20297;-54
2022/04/29 04:49:06;;;;;;;14.07;10.13;;;;;;;;;;4967790;28;20317;-54
2022/04/29 04:51:32;;;;;;;13.47;10.27;;;;;;;;;;4967241;28;20206;-54
2022/04/29 04:53:58;;;;;;;12.23;9.50;;;;;;;;;;4964334;28;20213;-54
2022/04/29 04:56:26;;;;;;;19.03;9.70;;;;;;;;;;4953199;28;20834;-54
2022/04/29 04:58:52;;;;;;;13.83;10.23;;;;;;;;;;4960631;28;20554;-54
2022/04/29 05:01:18;;;;;;;11.23;9.73;;;;;;;;;;4957732;28;20202;-54
2022/04/29 05:03:43;;;;;;;14.27;11.03;;;;;;;;;;4964504;28;21425;-54
2022/04/29 05:06:09;;;;;;;11.63;10.40;;;;;;;;;;4959522;28;20201;-53
2022/04/29 05:08:35;;;;;;;13.50;11.13;;;;;;;;;;4958975;28;20700;-53
2022/04/29 05:11:01;;;;;;;14.87;10.63;;;;;;;;;;4961711;28;20208;-54
2022/04/29 05:13:27;;;;;;;12.53;10.50;;;;;;;;;;4949089;28;20245;-54
2022/04/29 05:15:53;;;;;;;17.07;11.57;;;;;;;;;;4954026;28;20217;-54
2022/04/29 05:18:19;;;;;;;16.53;11.20;;;;;;;;;;4953044;28;20856;-54
2022/04/29 05:20:45;;;;;;;17.00;11.60;;;;;;;;;;4963330;28;20222;-54
2022/04/29 05:23:11;;;;;;;16.10;11.40;;;;;;;;;;4966570;28;20725;-53
2022/04/29 05:25:37;;;;;;;13.27;10.73;;;;;;;;;;4967618;28;20197;-54
2022/04/29 05:28:04;;;;;;;13.37;11.00;;;;;;;;;;4969230;28;20202;-54
2022/04/29 05:30:31;;;;;;;13.20;10.87;;;;;;;;;;4961212;28;20198;-54
2022/04/29 05:32:57;;;;;;;15.33;11.37;;;;;;;;;;4962593;28;20237;-54
2022/04/29 05:35:23;;;;;;;12.93;9.93;;;;;;;;;;4965843;28;20229;-54
2022/04/29 05:37:49;;;;;;;14.43;11.30;;;;;;;;;;4968964;28;20240;-53
2022/04/29 05:42:59;;;;;;;12.93;11.63;;;;;;;;;;4965066;28;20337;-54
2022/04/29 05:45:25;;;;;;;15.70;11.83;;;;;;;;;;4963857;28;20247;-54
2022/04/29 05:47:51;;;;;;;13.77;10.30;;;;;;;;;;4967267;28;20227;-54
2022/04/29 05:50:17;;;;;;;16.20;12.10;;;;;;;;;;4967347;28;20198;-54
2022/04/29 05:52:43;;;;;;;13.97;11.10;;;;;;;;;;4959349;28;20225;-54
2022/04/29 05:55:09;;;;;;;13.63;11.57;;;;;;;;;;4961853;28;20732;-54
2022/04/29 05:57:35;;;;;;;13.33;10.67;;;;;;;;;;4964779;28;20198;-54
2022/04/29 06:00:01;;;;;;;16.37;11.97;;;;;;;;;;4963632;28;20190;-54
2022/04/29 06:02:28;;;;;;;13.83;11.27;;;;;;;;;;4965495;28;20199;-55
2022/04/29 06:04:53;;;;;;;15.63;11.50;;;;;;;;;;4962359;28;20248;-53
2022/04/29 06:07:19;;;;;;;13.33;11.47;;;;;;;;;;4964565;28;20325;-54
2022/04/29 06:09:45;;;;;;;14.67;11.40;;;;;;;;;;4964116;28;20191;-54
2022/04/29 06:12:11;;;;;;;16.33;11.37;;;;;;;;;;4967374;28;20194;-54
2022/04/29 06:14:38;;;;;;;12.90;11.60;;;;;;;;;;4968753;28;20228;-54
2022/04/29 06:17:05;;;;;;;15.90;12.13;;;;;;;;;;4968528;28;21035;-54
2022/04/29 06:19:31;;;;;;;14.00;11.40;;;;;;;;;;4964540;28;20193;-54
2022/04/29 06:21:57;;;;;;;16.97;11.77;;;;;;;;;;4962613;28;20194;-54
2022/04/29 06:24:23;;;;;;;17.03;11.93;;;;;;;;;;4963870;28;20274;-54
2022/04/29 06:26:49;;;;;;;19.53;11.37;;;;;;;;;;4960327;28;20195;-55
2022/04/29 06:29:15;;;;;;;19.13;13.17;;;;;;;;;;4965981;28;20199;-54
2022/04/29 06:31:41;;;;;;;14.37;11.80;;;;;;;;;;4964094;28;20659;-54
2022/04/29 06:34:07;;;;;;;14.37;12.43;;;;;;;;;;4966156;28;20222;-54
2022/04/29 06:36:33;;;;;;;15.93;12.67;;;;;;;;;;4964472;28;20345;-54
2022/04/29 06:39:00;;;;;;;14.10;12.60;;;;;;;;;;4965988;28;20179;-54
2022/04/29 06:41:26;;;;;;;13.63;12.17;;;;;;;;;;4966909;28;20186;-54
2022/04/29 06:43:53;;;;;;;13.90;11.13;;;;;;;;;;4961812;28;20241;-54
2022/04/29 06:46:19;;;;;;;17.17;12.00;;;;;;;;;;4950830;28;20189;-54
2022/04/29 06:48:45;;;;;;;18.20;12.37;;;;;;;;;;4961730;28;20178;-53
2022/04/29 06:51:12;;;;;;;17.03;12.50;;;;;;;;;;4970901;28;20241;-54
2022/04/29 06:53:40;;;;;;;18.77;12.13;;;;;;;;;;4961134;28;20267;-54
2022/04/29 06:56:06;;;;;;;15.93;12.17;;;;;;;;;;4960916;28;20203;-54
2022/04/29 06:58:32;;;;;;;15.00;11.70;;;;;;;;;;4970604;28;20223;-54
2022/04/29 07:00:58;;;;;;;18.30;12.47;;;;;;;;;;4961275;28;21456;-54
2022/04/29 07:03:24;;;;;;;16.40;12.30;;;;;;;;;;4964204;28;20702;-54
2022/04/29 07:05:53;;;;;;;15.53;11.60;;;;;;;;;;4973036;28;20194;-54
2022/04/29 07:08:21;;;;;;;16.50;11.97;;;;;;;;;;4974574;28;20597;-54
2022/04/29 07:10:46;;;;;;;14.97;11.97;;;;;;;;;;4971435;28;20572;-54
2022/04/29 07:13:13;;;;;;;14.37;11.03;;;;;;;;;;4972526;28;20187;-54
2022/04/29 07:15:43;;;;;;;15.47;11.73;;;;;;;;;;4970757;28;20210;-54
2022/04/29 07:18:09;;;;;;;15.27;11.50;;;;;;;;;;4966325;28;20264;-55
2022/04/29 07:20:35;;;;;;;13.40;11.40;;;;;;;;;;4959517;28;20193;-54
2022/04/29 07:23:01;;;;;;;11.87;10.67;;;;;;;;;;4958622;28;20195;-55
2022/04/29 07:25:27;;;;;;;15.67;11.10;;;;;;;;;;4962967;28;20553;-54
2022/04/29 07:27:53;;;;;;;19.67;12.13;;;;;;;;;;4967385;28;20651;-54
2022/04/29 07:30:19;;;;;;;20.90;11.03;;;;;;;;;;4964544;28;20727;-54
2022/04/29 07:32:45;;;;;;;18.50;11.00;;;;;;;;;;4962526;28;20198;-55
2022/04/29 07:43:25;;;;;;;16.07;10.73;;;;;;;;;;4968586;28;21022;-54
2022/04/29 07:45:51;;;;;;;16.20;10.40;;;;;;;;;;4967471;28;20295;-53
2022/04/29 07:48:17;;;;;;;14.37;10.67;;;;;;;;;;4970873;28;20214;-54
2022/04/29 07:50:43;;;;;;;15.40;10.97;;;;;;;;;;4971299;28;20187;-54
2022/04/29 07:53:09;;;;;;;14.20;10.73;;;;;;;;;;4970091;28;20190;-54
2022/04/29 07:55:35;;;;;;;17.40;11.17;;;;;;;;;;4965538;28;20756;-54
2022/04/29 07:58:03;;;;;;;14.60;11.27;;;;;;;;;;4964144;28;20222;-54
2022/04/29 08:00:31;;;;;;;18.70;10.50;;;;;;;;;;4967879;28;20194;-54
2022/04/29 08:02:57;;;;;;;14.20;10.83;;;;;;;;;;4964890;28;20198;-54
2022/04/29 08:05:22;;;;;;;13.27;10.90;;;;;;;;;;4949621;28;20629;-54
2022/04/29 08:07:48;;;;;;;14.23;10.43;;;;;;;;;;4962248;28;20245;-53
2022/04/29 08:10:14;;;;;;;13.27;10.63;;;;;;;;;;4971584;28;20780;-54
2022/04/29 08:12:40;;;;;;;13.90;9.73;;;;;;;;;;4973739;28;20778;-54
2022/04/29 08:15:06;;;;;;;13.53;9.97;;;;;;;;;;4964982;28;20608;-54
2022/04/29 08:17:32;;;;;;;15.70;10.80;;;;;;;;;;4968871;28;20753;-54
2022/04/29 08:19:58;;;;;;;15.47;11.17;;;;;;;;;;4972854;28;20198;-53
2022/04/29 08:22:24;;;;;;;14.37;9.80;;;;;;;;;;4966580;28;20183;-54
2022/04/29 08:24:50;;;;;;;18.07;9.97;;;;;;;;;;4963643;28;20191;-53
2022/04/29 08:27:16;;;;;;;11.57;10.37;;;;;;;;;;4954770;28;20187;-54
2022/04/29 08:29:42;;;;;;;16.63;10.80;;;;;;;;;;4957335;28;21398;-54
2022/04/29 08:32:08;;;;;;;12.00;9.93;;;;;;;;;;4967800;28;20222;-54
2022/04/29 08:34:34;;;;;;;12.97;10.77;;;;;;;;;;4960367;28;21037;-53
2022/04/29 08:37:04;;;;;;;11.17;9.33;;;;;;;;;;4961708;28;20194;-54
2022/04/29 08:39:30;;;;;;;15.33;10.73;;;;;;;;;;4961505;28;21152;-54
2022/04/29 08:41:57;;;;;;;12.10;9.27;;;;;;;;;;4957592;28;20909;-54
2022/04/29 08:44:23;;;;;;;11.53;9.87;;;;;;;;;;4960919;28;20719;-54
2022/04/29 08:46:49;;;;;;;12.10;9.43;;;;;;;;;;4965983;28;20202;-54
2022/04/29 08:49:15;;;;;;;15.07;9.43;;;;;;;;;;4968176;28;20555;-53
2022/04/29 08:51:41;;;;;;;11.23;10.10;;;;;;;;;;4969426;28;20273;-52
2022/04/29 08:54:07;;;;;;;14.77;9.80;;;;;;;;;;4967273;28;20240;-52
2022/04/29 08:59:22;;;;;;;13.60;9.53;;;;;;;;;;4978919;28;20206;-52
2022/04/29 09:01:48;;;;;;;14.07;9.20;;;;;;;;;;4961412;28;20602;-52
2022/04/29 09:04:14;;;;;;;12.80;9.40;;;;;;;;;;4968129;28;20195;-52
2022/04/29 09:06:49;;;;;;;12.30;9.13;;;;;;;;;;4963336;28;20338;-52
2022/04/29 09:09:14;;;;;;;12.93;8.50;;;;;;;;;;4962804;28;20226;-52
2022/04/29 09:11:40;;;;;;;15.33;8.70;;;;;;;;;;4981812;28;20644;-52
2022/04/29 09:14:23;;;;;;;16.57;8.47;;;;;;;;;;4967496;28;20213;-53
2022/04/29 09:16:49;;;;;;;13.37;9.37;;;;;;;;;;4969495;28;20251;-52
2022/04/29 09:19:35;;;;;;;14.13;8.73;;;;;;;;;;4968344;28;20281;-53
2022/04/29 09:22:06;;;;;;;11.93;8.73;;;;;;;;;;4966392;28;20187;-52
2022/04/29 09:24:32;;;;;;;11.10;8.33;;;;;;;;;;4961486;28;20186;-53
2022/04/29 09:27:02;;;;;;;11.10;7.90;;;;;;;;;;4957508;28;20226;-53
2022/04/29 09:29:28;;;;;;;11.20;7.90;;;;;;;;;;4965363;28;20297;-52
2022/04/29 09:31:55;;;;;;;16.27;8.27;;;;;;;;;;4969659;28;20212;-53
2022/04/29 09:34:21;;;;;;;16.63;8.27;;;;;;;;;;4961305;28;20210;-52
2022/04/29 09:36:47;;;;;;;14.60;8.53;;;;;;;;;;4972463;28;20747;-52
2022/04/29 09:39:32;;;;;;;11.55;7.75;;;;;;;;;;4965050;28;20183;-52
2022/04/29 09:41:58;;;;;;;10.93;8.63;;;;;;;;;;4958330;28;20392;-52
2022/04/29 09:44:31;;;;;;;12.48;7.13;;;;;;;;;;4954640;28;20477;-52
2022/04/29 09:47:13;;;;;;;13.77;8.65;;;;;;;;;;4953735;28;20206;-52
2022/04/29 09:49:40;;;;;;;11.88;7.53;;;;;;;;;;4957922;28;20269;-53
2022/04/29 09:52:06;;;;;;;13.52;7.32;;;;;;;;;;4955951;28;20625;-52
2022/04/29 09:54:37;;;;;;;13.10;7.10;;;;;;;;;;4956905;28;20323;-52
2022/04/29 09:57:06;;;;;;;10.73;6.93;;;;;;;;;;4961607;28;20218;-52
2022/04/29 09:59:36;;;;;;;10.95;7.72;;;;;;;;;;4964655;28;20546;-52
2022/04/29 10:02:02;;;;;;;9.35;7.00;;;;;;;;;;4960159;28;20935;-52
2022/04/29 10:04:32;;;;;;;11.15;6.97;;;;;;;;;;4961659;28;20217;-52
2022/04/29 10:06:59;;;;;;;11.48;6.97;;;;;;;;;;4963649;28;21182;-52
2022/04/29 10:09:25;;;;;;;13.68;6.60;;;;;;;;;;4968454;28;20199;-52
2022/04/29 10:11:52;;;;;;;7.53;6.13;;;;;;;;;;4969311;28;20183;-52
2022/04/29 10:14:18;;;;;;;13.02;7.88;;;;;;;;;;4964626;28;20219;-52
2022/04/29 10:16:45;;;;;;;12.05;6.85;;;;;;;;;;4968076;28;20521;-53
2022/04/29 10:21:58;;;;;;;11.13;7.00;;;;;;;;;;4965526;28;20247;-52
2022/04/29 10:24:25;;;;;;;9.43;6.72;;;;;;;;;;4967639;28;20182;-52
2022/04/29 10:26:52;;;;;;;12.15;6.88;;;;;;;;;;4962964;28;20183;-53
2022/04/29 10:29:18;;;;;;;9.15;5.78;;;;;;;;;;4976617;28;20668;-52
2022/04/29 10:31:51;;;;;;;9.90;6.70;;;;;;;;;;4966893;28;20296;-53
2022/04/29 10:34:28;;;;;;;9.93;6.45;;;;;;;;;;4963663;28;20233;-53
2022/04/29 10:36:54;;;;;;;8.23;5.25;;;;;;;;;;4970308;28;20194;-53
2022/04/29 10:39:21;;;;;;;9.57;6.57;;;;;;;;;;4969919;28;20192;-53
2022/04/29 10:41:59;;;;;;;11.10;6.43;;;;;;;;;;4972445;28;20210;-53
2022/04/29 10:44:25;;;;;;;10.27;6.82;;;;;;;;;;4972184;28;20273;-55
2022/04/29 10:46:51;;;;;;;9.68;6.65;;;;;;;;;;4970402;28;20190;-55
2022/04/29 10:49:27;;;;;;;8.98;6.70;;;;;;;;;;4976207;28;20189;-54
2022/04/29 10:51:53;;;;;;;10.13;7.00;;;;;;;;;;4975809;28;20187;-54
2022/04/29 10:54:35;;;;;;;10.13;6.25;;;;;;;;;;4976482;28;20210;-53
2022/04/29 10:57:04;;;;;;;11.20;6.90;;;;;;;;;;4976546;28;20190;-54
2022/04/29 10:59:50;;;;;;;9.02;6.32;;;;;;;;;;4967678;28;20631;-54
2022/04/29 11:02:42;;;;;;;8.95;4.82;;;;;;;;;;4971830;28;20222;-54
2022/04/29 11:05:08;;;;;;;9.05;6.55;;;;;;;;;;4971824;28;20209;-54
2022/04/29 11:07:38;;;;;;;8.25;4.95;;;;;;;;;;4968880;28;21070;-54
2022/04/29 11:10:04;;;;;;;7.10;4.88;;;;;;;;;;4970676;28;20237;-54
2022/04/29 11:12:34;;;;;;;8.85;6.07;;;;;;;;;;4968168;28;20706;-54
2022/04/29 11:15:16;;;;;;;7.95;4.90;;;;;;;;;;4970040;28;20210;-54
2022/04/29 11:17:42;;;;;;;6.68;4.50;;;;;;;;;;4967626;28;20190;-54
2022/04/29 11:20:18;;;;;;;10.60;5.95;;;;;;;;;;4970159;28;20190;-54
2022/04/29 11:25:58;;;;;;;8.48;4.47;;;;;;;;;;4974969;28;20205;-53
2022/04/29 11:28:25;;;;;;;9.05;4.30;;;;;;;;;;4963504;28;20198;-54
2022/04/29 11:30:51;;;;;;;5.88;4.72;;;;;;;;;;4964094;28;20190;-53
2022/04/29 11:33:23;;;;;;;7.75;5.68;;;;;;;;;;4969731;28;20182;-54
2022/04/29 11:36:09;;;;;;;7.90;4.15;;;;;;;;;;4968131;28;20213;-54
2022/04/29 11:38:45;;;;;;;7.82;4.90;;;;;;;;;;4965337;28;20572;-54
2022/04/29 11:41:17;;;;;;;6.30;3.83;;;;;;;;;;4967255;28;21235;-54
2022/04/29 11:43:45;;;;;;;5.00;4.03;;;;;;;;;;4964177;28;20224;-54
2022/04/29 11:46:11;;;;;;;6.90;5.00;;;;;;;;;;4972446;28;20237;-54
2022/04/29 11:48:37;;;;;;;5.78;4.82;;;;;;;;;;4968152;28;20214;-54
2022/04/29 11:51:06;;;;;;;13.18;6.68;;;;;;;;;;4954972;28;20202;-53
2022/04/29 11:53:33;;;;;;;8.70;6.13;;;;;;;;;;4958907;28;20183;-54
2022/04/29 11:55:59;;;;;;;7.93;4.47;;;;;;;;;;4965855;28;21312;-53
2022/04/29 11:58:28;;;;;;;8.15;4.32;;;;;;;;;;4965905;28;20239;-54
2022/04/29 12:00:57;;;;;;;7.93;4.35;;;;;;;;;;4943326;28;20256;-54
2022/04/29 12:03:23;;;;;;;7.65;5.15;;;;;;;;;;4944924;28;20190;-54
2022/04/29 12:05:49;;;;;;;13.45;9.43;;;;;;;;;;4933714;28;20186;-54
2022/04/29 12:08:16;;;;;;;12.02;9.43;;;;;;;;;;4924064;28;20861;-55
2022/04/29 12:10:43;;;;;;;14.65;10.07;;;;;;;;;;4934419;28;20187;-55
2022/04/29 12:13:09;;;;;;;14.93;10.50;;;;;;;;;;4946390;28;20191;-55
2022/04/29 12:15:36;;;;;;;15.35;10.75;;;;;;;;;;4948339;28;20315;-55
2022/04/29 12:18:02;;;;;;;14.98;10.07;;;;;;;;;;4955711;28;25636;-55
2022/04/29 12:20:28;;;;;;;14.27;10.50;;;;;;;;;;4936035;28;21484;-55
2022/04/29 12:22:54;;;;;;;14.50;10.63;;;;;;;;;;4941424;28;20183;-55
2022/04/29 12:25:27;;;;;;;16.05;10.23;;;;;;;;;;4958955;28;20628;-55
2022/04/29 12:28:06;;;;;;;15.20;10.40;;;;;;;;;;4961633;28;20198;-55
2022/04/29 12:36:07;;;;;;;14.27;9.50;;;;;;;;;;4958069;28;20357;-55
2022/04/29 12:38:34;;;;;;;15.93;10.40;;;;;;;;;;4963424;28;20190;-55
2022/04/29 12:41:13;;;;;;;16.10;9.77;;;;;;;;;;4959089;28;20202;-55
2022/04/29 12:43:42;;;;;;;17.10;9.43;;;;;;;;;;4961910;28;20265;-51
2022/04/29 12:46:15;;;;;;;13.63;8.10;;;;;;;;;;4958103;28;20182;-52
2022/04/29 12:48:50;;;;;;;12.43;7.50;;;;;;;;;;4963723;28;20664;-53
2022/04/29 12:51:31;;;;;;;9.93;6.10;;;;;;;;;;4957403;28;20181;-52
2022/04/29 12:53:57;;;;;;;8.35;6.65;;;;;;;;;;4958132;28;20198;-53
2022/04/29 12:56:23;;;;;;;12.98;6.47;;;;;;;;;;4965590;28;20241;-53
2022/04/29 12:58:49;;;;;;;10.30;6.28;;;;;;;;;;4967784;28;20544;-53
2022/04/29 13:01:15;;;;;;;9.18;6.32;;;;;;;;;;4957797;28;20561;-54
2022/04/29 13:03:41;;;;;;;12.30;6.30;;;;;;;;;;4957710;28;20549;-54
2022/04/29 13:06:08;;;;;;;8.00;5.78;;;;;;;;;;4960893;28;20219;-54
2022/04/29 13:08:34;;;;;;;10.93;5.28;;;;;;;;;;4958185;28;20254;-54
2022/04/29 13:11:06;;;;;;;15.65;5.55;;;;;;;;;;4960117;28;20343;-53
2022/04/29 13:13:32;;;;;;;10.23;6.15;;;;;;;;;;4961322;28;20436;-56
2022/04/29 13:15:58;;;;;;;17.77;6.40;;;;;;;;;;4962740;28;20218;-53
2022/04/29 13:18:24;;;;;;;9.77;5.70;;;;;;;;;;4962420;28;20230;-53
2022/04/29 13:20:50;;;;;;;13.95;6.30;;;;;;;;;;4962540;28;20270;-54
2022/04/29 13:23:16;;;;;;;14.40;8.48;;;;;;;;;;4963331;28;20191;-54
2022/04/29 13:25:42;;;;;;;12.48;5.85;;;;;;;;;;4966406;28;20632;-54
2022/04/29 13:28:08;;;;;;;10.32;6.15;;;;;;;;;;4966588;28;20329;-54
2022/04/29 13:30:35;;;;;;;14.15;6.63;;;;;;;;;;4958454;28;20198;-54
2022/04/29 13:33:01;;;;;;;12.80;6.35;;;;;;;;;;4961508;28;20194;-54
2022/04/29 13:35:28;;;;;;;12.07;6.78;;;;;;;;;;4963586;28;20218;-54
2022/04/29 13:37:55;;;;;;;11.27;6.13;;;;;;;;;;4965420;28;20187;-54
2022/04/29 13:40:21;;;;;;;9.07;5.82;;;;;;;;;;4963061;28;20198;-54
2022/04/29 13:42:48;;;;;;;11.30;6.00;;;;;;;;;;4953962;28;20530;-54
2022/04/29 13:45:14;;;;;;;9.93;5.43;;;;;;;;;;4956869;28;20217;-54
2022/04/29 13:47:41;;;;;;;11.00;5.33;;;;;;;;;;4956644;28;20210;-54
2022/04/29 13:50:07;;;;;;;12.17;5.67;;;;;;;;;;4960786;28;20197;-56
2022/04/29 13:55:18;;;;;;;10.33;5.40;;;;;;;;;;4952356;28;20277;-54
2022/04/29 13:57:44;;;;;;;16.40;5.60;;;;;;;;;;4959853;28;20182;-55
2022/04/29 14:00:10;;;;;;;11.87;7.00;;;;;;;;;;4948499;28;20182;-56
2022/04/29 14:02:38;;;;;;;8.47;5.90;;;;;;;;;;4943853;28;20269;-55
2022/04/29 14:05:04;;;;;;;15.87;6.03;;;;;;;;;;4952992;28;20201;-56
2022/04/29 14:07:30;;;;;;;8.93;5.50;;;;;;;;;;4954838;28;20851;-56
2022/04/29 14:09:56;;;;;;;10.77;4.97;;;;;;;;;;4957787;28;20222;-55
2022/04/29 14:12:25;;;;;;;10.37;5.00;;;;;;;;;;4960068;28;20649;-56
2022/04/29 14:14:53;;;;;;;9.07;5.20;;;;;;;;;;4948603;28;20208;-56
2022/04/29 14:17:18;;;;;;;6.80;4.60;;;;;;;;;;4945781;28;20182;-56
2022/04/29 14:19:44;;;;;;;8.23;4.50;;;;;;;;;;4963001;28;20193;-56
2022/04/29 14:22:10;;;;;;;8.77;4.83;;;;;;;;;;4962186;28;20213;-57
2022/04/29 14:24:36;;;;;;;8.77;4.73;;;;;;;;;;4948393;28;20663;-53
2022/04/29 14:27:03;;;;;;;8.53;4.97;;;;;;;;;;4949592;28;20807;-56
2022/04/29 14:29:33;;;;;;;11.40;6.40;;;;;;;;;;4957821;28;20805;-55
2022/04/29 14:31:59;;;;;;;12.70;7.23;;;;;;;;;;4955994;28;20186;-55
2022/04/29 14:34:26;;;;;;;12.10;7.57;;;;;;;;;;4960257;28;20218;-56
2022/04/29 14:36:52;;;;;;;10.77;6.40;;;;;;;;;;4954196;28;20199;-55
2022/04/29 14:39:19;;;;;;;10.87;6.93;;;;;;;;;;4961594;28;20182;-55
2022/04/29 14:41:46;;;;;;;15.87;5.47;;;;;;;;;;4952740;28;20186;-52
2022/04/29 14:44:12;;;;;;;6.97;5.33;;;;;;;;;;4956792;28;20202;-52
2022/04/29 14:46:40;;;;;;;8.40;5.20;;;;;;;;;;4951978;28;20191;-52
2022/04/29 14:49:06;;;;;;;9.03;4.77;;;;;;;;;;4959500;28;20726;-52
2022/04/29 14:51:32;;;;;;;6.87;4.60;;;;;;;;;;4941059;28;20622;-55
2022/04/29 14:53:59;;;;;;;9.80;5.03;;;;;;;;;;4955652;28;20242;-52
2022/04/29 14:56:25;;;;;;;11.70;5.80;;;;;;;;;;4957921;28;20206;-51
2022/04/29 14:58:50;;;;;;;12.87;5.77;;;;;;;;;;4959627;28;20182;-52
2022/04/29 15:01:17;;;;;;;11.60;5.63;;;;;;;;;;4968589;28;20187;-52
2022/04/29 15:03:45;;;;;;;7.90;5.80;;;;;;;;;;4966374;28;20184;-52